createdAt,value
2017-05-13T00:00:38.020Z,999.13
2017-05-13T00:01:39.321Z,999.17
2017-05-13T00:02:40.663Z,999.14
2017-05-13T00:03:41.859Z,999.15
2017-05-13T00:04:43.112Z,999.15
2017-05-13T00:05:44.445Z,999.14
2017-05-13T00:06:45.740Z,999.14
2017-05-13T00:07:47.055Z,999.13
2017-05-13T00:08:48.293Z,999.14
2017-05-13T00:09:49.589Z,999.15
2017-05-13T00:10:50.844Z,999.13
2017-05-13T00:11:52.089Z,999.17
2017-05-13T00:12:53.449Z,999.19
2017-05-13T00:13:54.780Z,999.17
2017-05-13T00:14:55.950Z,999.19
2017-05-13T00:15:57.257Z,999.21
2017-05-13T00:16:58.527Z,999.2
2017-05-13T00:18:00.057Z,999.24
2017-05-13T00:19:01.329Z,999.21
2017-05-13T00:20:02.606Z,999.26
2017-05-13T00:21:03.827Z,999.26
2017-05-13T00:22:05.108Z,999.23
2017-05-13T00:23:06.353Z,999.27
2017-05-13T00:24:07.726Z,999.23
2017-05-13T00:25:09.004Z,999.24
2017-05-13T00:26:10.256Z,999.21
2017-05-13T00:27:11.524Z,999.2
2017-05-13T00:28:12.806Z,999.17
2017-05-13T00:29:14.064Z,999.18
2017-05-13T00:30:15.358Z,999.19
2017-05-13T00:31:16.649Z,999.16
2017-05-13T00:32:17.931Z,999.16
2017-05-13T00:33:19.193Z,999.15
2017-05-13T00:34:20.435Z,999.12
2017-05-13T00:35:21.710Z,999.1
2017-05-13T00:36:23.086Z,999.12
2017-05-13T00:37:24.267Z,999.12
2017-05-13T00:38:25.664Z,999.13
2017-05-13T00:39:27.036Z,999.14
2017-05-13T00:40:28.258Z,999.15
2017-05-13T00:41:29.540Z,999.13
2017-05-13T00:42:30.893Z,999.13
2017-05-13T00:43:32.071Z,999.1
2017-05-13T00:44:33.312Z,999.12
2017-05-13T00:45:34.559Z,999.09
2017-05-13T00:46:35.816Z,999.05
2017-05-13T00:47:37.112Z,999.08
2017-05-13T00:48:38.456Z,999.05
2017-05-13T00:49:39.817Z,999
2017-05-13T00:50:41.155Z,999.05
2017-05-13T00:51:42.451Z,999.03
2017-05-13T00:52:43.753Z,999.08
2017-05-13T00:53:45.097Z,999.07
2017-05-13T00:54:46.254Z,999.03
2017-05-13T00:55:47.530Z,999.01
2017-05-13T00:56:48.772Z,999.01
2017-05-13T00:57:50.010Z,998.99
2017-05-13T00:58:51.298Z,998.94
2017-05-13T00:59:52.559Z,998.95
2017-05-13T01:00:53.855Z,998.95
2017-05-13T01:01:55.153Z,998.9
2017-05-13T01:02:56.418Z,998.88
2017-05-13T01:03:57.679Z,998.91
2017-05-13T01:04:58.932Z,998.88
2017-05-13T01:06:00.221Z,998.87
2017-05-13T01:07:01.522Z,998.79
2017-05-13T01:08:02.806Z,998.8
2017-05-13T01:09:04.077Z,998.83
2017-05-13T01:10:05.328Z,998.85
2017-05-13T01:11:06.590Z,998.88
2017-05-13T01:12:07.873Z,998.87
2017-05-13T01:13:09.363Z,998.84
2017-05-13T01:14:10.586Z,998.82
2017-05-13T01:15:11.846Z,998.79
2017-05-13T01:16:13.119Z,998.79
2017-05-13T01:17:14.477Z,998.76
2017-05-13T01:18:15.749Z,998.75
2017-05-13T01:19:17.004Z,998.76
2017-05-13T01:20:18.262Z,998.74
2017-05-13T01:21:19.519Z,998.75
2017-05-13T01:22:20.785Z,998.73
2017-05-13T01:23:22.083Z,998.71
2017-05-13T01:24:23.362Z,998.71
2017-05-13T01:25:24.665Z,998.71
2017-05-13T01:26:25.908Z,998.73
2017-05-13T01:27:27.162Z,998.74
2017-05-13T01:28:28.405Z,998.71
2017-05-13T01:29:29.779Z,998.78
2017-05-13T01:30:31.124Z,998.79
2017-05-13T01:31:32.390Z,998.78
2017-05-13T01:32:33.636Z,998.76
2017-05-13T01:33:34.906Z,998.76
2017-05-13T01:34:36.175Z,998.79
2017-05-13T01:35:37.605Z,998.75
2017-05-13T01:36:38.888Z,998.76
2017-05-13T01:37:40.147Z,998.78
2017-05-13T01:38:41.431Z,998.77
2017-05-13T01:39:42.692Z,998.76
2017-05-13T01:40:43.938Z,998.79
2017-05-13T01:41:45.453Z,998.82
2017-05-13T01:42:46.734Z,998.85
2017-05-13T01:43:47.979Z,998.82
2017-05-13T01:44:49.244Z,998.86
2017-05-13T01:45:50.485Z,998.91
2017-05-13T01:46:51.796Z,998.95
2017-05-13T01:47:53.088Z,998.95
2017-05-13T01:48:54.334Z,998.98
2017-05-13T01:49:55.581Z,999
2017-05-13T01:50:56.837Z,999
2017-05-13T01:51:58.088Z,998.99
2017-05-13T01:52:59.401Z,999.03
2017-05-13T01:54:00.713Z,999.05
2017-05-13T01:55:01.965Z,999.07
2017-05-13T01:56:03.214Z,999.07
2017-05-13T01:57:04.503Z,999.11
2017-05-13T01:58:05.813Z,999.09
2017-05-13T01:59:07.118Z,999.1
2017-05-13T02:00:08.307Z,999.15
2017-05-13T02:01:09.613Z,999.17
2017-05-13T02:02:10.862Z,999.21
2017-05-13T02:03:12.129Z,999.19
2017-05-13T02:04:13.471Z,999.2
2017-05-13T02:05:14.765Z,999.23
2017-05-13T02:06:16.020Z,999.19
2017-05-13T02:07:17.299Z,999.2
2017-05-13T02:08:18.589Z,999.23
2017-05-13T02:09:19.841Z,999.17
2017-05-13T02:10:21.120Z,999.22
2017-05-13T02:11:22.372Z,999.22
2017-05-13T02:12:23.659Z,999.2
2017-05-13T02:13:24.896Z,999.17
2017-05-13T02:14:26.202Z,999.18
2017-05-13T02:15:27.409Z,999.11
2017-05-13T02:16:28.657Z,999.13
2017-05-13T02:17:29.975Z,999.13
2017-05-13T02:18:31.246Z,999.18
2017-05-13T02:19:32.511Z,999.17
2017-05-13T02:20:33.755Z,999.15
2017-05-13T02:21:35.000Z,999.16
2017-05-13T02:22:36.264Z,999.17
2017-05-13T02:23:37.653Z,999.19
2017-05-13T02:24:38.916Z,999.21
2017-05-13T02:25:40.207Z,999.24
2017-05-13T02:26:41.443Z,999.25
2017-05-13T02:27:42.697Z,999.23
2017-05-13T02:28:44.000Z,999.26
2017-05-13T02:29:45.227Z,999.26
2017-05-13T02:30:46.541Z,999.25
2017-05-13T02:31:47.754Z,999.28
2017-05-13T02:32:49.020Z,999.27
2017-05-13T02:33:50.312Z,999.26
2017-05-13T02:34:51.570Z,999.25
2017-05-13T02:35:52.977Z,999.28
2017-05-13T02:36:54.120Z,999.22
2017-05-13T02:37:55.405Z,999.23
2017-05-13T02:38:56.694Z,999.25
2017-05-13T02:39:58.093Z,999.27
2017-05-13T02:40:59.395Z,999.3
2017-05-13T02:42:00.693Z,999.27
2017-05-13T02:43:01.921Z,999.28
2017-05-13T02:44:03.296Z,999.24
2017-05-13T02:45:04.563Z,999.27
2017-05-13T02:46:05.840Z,999.3
2017-05-13T02:47:07.111Z,999.27
2017-05-13T02:48:08.400Z,999.32
2017-05-13T02:49:09.629Z,999.3
2017-05-13T02:50:10.950Z,999.3
2017-05-13T02:51:12.249Z,999.3
2017-05-13T02:52:13.500Z,999.34
2017-05-13T02:53:14.793Z,999.36
2017-05-13T02:54:16.063Z,999.35
2017-05-13T02:55:17.311Z,999.39
2017-05-13T02:56:18.581Z,999.42
2017-05-13T02:57:19.937Z,999.44
2017-05-13T02:58:21.203Z,999.43
2017-05-13T02:59:22.506Z,999.39
2017-05-13T03:00:23.778Z,999.38
2017-05-13T03:01:25.054Z,999.4
2017-05-13T03:02:26.318Z,999.4
2017-05-13T03:03:27.591Z,999.41
2017-05-13T03:04:28.860Z,999.46
2017-05-13T03:05:30.117Z,999.4
2017-05-13T03:06:31.459Z,999.46
2017-05-13T03:07:32.718Z,999.45
2017-05-13T03:08:33.989Z,999.46
2017-05-13T03:09:35.299Z,999.47
2017-05-13T03:10:36.620Z,999.47
2017-05-13T03:11:37.896Z,999.48
2017-05-13T03:12:39.170Z,999.47
2017-05-13T03:13:40.455Z,999.47
2017-05-13T03:14:41.741Z,999.44
2017-05-13T03:15:43.039Z,999.48
2017-05-13T03:16:44.254Z,999.46
2017-05-13T03:17:45.610Z,999.45
2017-05-13T03:18:46.949Z,999.48
2017-05-13T03:19:48.206Z,999.48
2017-05-13T03:20:49.449Z,999.55
2017-05-13T03:21:50.714Z,999.58
2017-05-13T03:22:51.945Z,999.62
2017-05-13T03:23:53.231Z,999.62
2017-05-13T03:24:54.475Z,999.62
2017-05-13T03:25:55.736Z,999.67
2017-05-13T03:26:57.005Z,999.71
2017-05-13T03:27:58.282Z,999.68
2017-05-13T03:28:59.631Z,999.73
2017-05-13T03:30:00.920Z,999.74
2017-05-13T03:31:02.177Z,999.77
2017-05-13T03:32:03.440Z,999.79
2017-05-13T03:33:04.717Z,999.73
2017-05-13T03:34:06.058Z,999.75
2017-05-13T03:35:07.441Z,999.74
2017-05-13T03:36:08.756Z,999.74
2017-05-13T03:37:10.041Z,999.74
2017-05-13T03:38:11.306Z,999.79
2017-05-13T03:39:12.623Z,999.81
2017-05-13T03:40:13.859Z,999.88
2017-05-13T03:41:15.134Z,999.86
2017-05-13T03:42:16.400Z,999.85
2017-05-13T03:43:17.681Z,999.86
2017-05-13T03:44:18.951Z,999.85
2017-05-13T03:45:20.194Z,999.85
2017-05-13T03:46:21.596Z,999.87
2017-05-13T03:47:22.926Z,999.88
2017-05-13T03:48:24.177Z,999.8
2017-05-13T03:49:25.422Z,999.82
2017-05-13T03:50:26.672Z,999.81
2017-05-13T03:51:27.992Z,999.83
2017-05-13T03:52:29.264Z,999.8
2017-05-13T03:53:30.529Z,999.81
2017-05-13T03:54:31.816Z,999.79
2017-05-13T03:55:33.044Z,999.83
2017-05-13T03:56:34.287Z,999.77
2017-05-13T03:57:35.614Z,999.78
2017-05-13T03:58:36.906Z,999.78
2017-05-13T03:59:38.135Z,999.82
2017-05-13T04:00:39.411Z,999.79
2017-05-13T04:01:40.679Z,999.8
2017-05-13T04:02:41.954Z,999.81
2017-05-13T04:03:43.330Z,999.82
2017-05-13T04:04:44.690Z,999.84
2017-05-13T04:05:45.900Z,999.85
2017-05-13T04:06:47.146Z,999.84
2017-05-13T04:07:48.396Z,999.86
2017-05-13T04:08:49.637Z,999.82
2017-05-13T04:09:50.969Z,999.84
2017-05-13T04:10:52.299Z,999.87
2017-05-13T04:11:53.561Z,999.88
2017-05-13T04:12:54.805Z,999.89
2017-05-13T04:13:56.361Z,999.92
2017-05-13T04:14:57.619Z,999.9
2017-05-13T04:15:58.930Z,999.94
2017-05-13T04:17:00.263Z,999.95
2017-05-13T04:18:01.519Z,999.93
2017-05-13T04:19:02.779Z,999.94
2017-05-13T04:20:04.049Z,999.88
2017-05-13T04:21:05.350Z,999.93
2017-05-13T04:22:06.572Z,999.86
2017-05-13T04:23:07.834Z,999.9
2017-05-13T04:24:09.072Z,999.88
2017-05-13T04:25:10.313Z,999.85
2017-05-13T04:26:11.576Z,999.84
2017-05-13T04:27:12.832Z,999.87
2017-05-13T04:28:14.100Z,999.89
2017-05-13T04:29:15.355Z,999.91
2017-05-13T04:30:16.639Z,999.89
2017-05-13T04:31:17.886Z,999.9
2017-05-13T04:32:19.136Z,999.91
2017-05-13T04:33:20.401Z,999.92
2017-05-13T04:34:21.753Z,999.93
2017-05-13T04:35:23.010Z,999.93
2017-05-13T04:36:24.271Z,999.96
2017-05-13T04:37:25.518Z,999.94
2017-05-13T04:38:26.791Z,999.94
2017-05-13T04:39:28.085Z,999.95
2017-05-13T04:40:29.437Z,999.92
2017-05-13T04:41:30.721Z,999.94
2017-05-13T04:42:31.962Z,999.94
2017-05-13T04:43:33.204Z,999.96
2017-05-13T04:44:34.535Z,999.96
2017-05-13T04:45:35.843Z,999.98
2017-05-13T04:46:37.285Z,1000.03
2017-05-13T04:47:38.539Z,1000.06
2017-05-13T04:48:39.771Z,1000.06
2017-05-13T04:49:41.034Z,1000.05
2017-05-13T04:50:42.323Z,1000.06
2017-05-13T04:51:43.638Z,1000.06
2017-05-13T04:52:44.923Z,1000.1
2017-05-13T04:53:46.166Z,1000.13
2017-05-13T04:54:47.401Z,1000.17
2017-05-13T04:55:48.715Z,1000.17
2017-05-13T04:56:49.965Z,1000.22
2017-05-13T04:57:51.295Z,1000.26
2017-05-13T04:58:52.530Z,1000.28
2017-05-13T04:59:53.791Z,1000.31
2017-05-13T05:00:55.008Z,1000.32
2017-05-13T05:01:56.379Z,1000.33
2017-05-13T05:02:57.856Z,1000.33
2017-05-13T05:03:59.131Z,1000.38
2017-05-13T05:05:00.372Z,1000.34
2017-05-13T05:06:01.636Z,1000.38
2017-05-13T05:07:02.908Z,1000.38
2017-05-13T05:08:04.162Z,1000.41
2017-05-13T05:09:05.402Z,1000.41
2017-05-13T05:10:06.697Z,1000.42
2017-05-13T05:11:07.966Z,1000.42
2017-05-13T05:12:09.220Z,1000.42
2017-05-13T05:13:10.486Z,1000.44
2017-05-13T05:14:11.859Z,1000.42
2017-05-13T05:15:13.144Z,1000.44
2017-05-13T05:16:14.467Z,1000.46
2017-05-13T05:17:15.774Z,1000.44
2017-05-13T05:18:17.026Z,1000.47
2017-05-13T05:19:18.274Z,1000.48
2017-05-13T05:20:19.578Z,1000.49
2017-05-13T05:21:20.886Z,1000.46
2017-05-13T05:22:22.120Z,1000.48
2017-05-13T05:23:23.392Z,1000.47
2017-05-13T05:24:24.686Z,1000.51
2017-05-13T05:25:25.992Z,1000.53
2017-05-13T05:26:27.287Z,1000.53
2017-05-13T05:27:28.536Z,1000.59
2017-05-13T05:28:29.822Z,1000.57
2017-05-13T05:29:31.140Z,1000.61
2017-05-13T05:30:32.444Z,1000.62
2017-05-13T05:31:33.662Z,1000.66
2017-05-13T05:32:34.974Z,1000.69
2017-05-13T05:33:36.218Z,1000.71
2017-05-13T05:34:37.598Z,1000.73
2017-05-13T05:35:38.868Z,1000.71
2017-05-13T05:36:40.187Z,1000.73
2017-05-13T05:37:41.468Z,1000.76
2017-05-13T05:38:42.756Z,1000.79
2017-05-13T05:39:43.994Z,1000.78
2017-05-13T05:40:45.287Z,1000.79
2017-05-13T05:41:46.549Z,1000.78
2017-05-13T05:42:47.788Z,1000.8
2017-05-13T05:43:49.065Z,1000.8
2017-05-13T05:44:50.322Z,1000.81
2017-05-13T05:45:51.726Z,1000.88
2017-05-13T05:46:53.010Z,1000.85
2017-05-13T05:47:54.267Z,1000.83
2017-05-13T05:48:55.530Z,1000.85
2017-05-13T05:49:56.801Z,1000.84
2017-05-13T05:50:58.096Z,1000.87
2017-05-13T05:51:59.361Z,1000.9
2017-05-13T05:53:00.623Z,1000.89
2017-05-13T05:54:01.889Z,1000.9
2017-05-13T05:55:03.106Z,1000.91
2017-05-13T05:56:04.447Z,1000.9
2017-05-13T05:57:05.718Z,1000.92
2017-05-13T05:58:06.980Z,1000.99
2017-05-13T05:59:08.234Z,1001.02
2017-05-13T06:00:09.530Z,1001
2017-05-13T06:01:10.738Z,1000.97
2017-05-13T06:02:12.027Z,1001.01
2017-05-13T06:03:13.282Z,1001.01
2017-05-13T06:04:14.571Z,1001.04
2017-05-13T06:05:15.841Z,1001.07
2017-05-13T06:06:17.105Z,1001.06
2017-05-13T06:07:18.440Z,1001.06
2017-05-13T06:08:19.687Z,1001.09
2017-05-13T06:09:21.021Z,1001.1
2017-05-13T06:10:22.274Z,1001.09
2017-05-13T06:11:23.562Z,1001.09
2017-05-13T06:12:24.845Z,1001.11
2017-05-13T06:13:26.117Z,1001.12
2017-05-13T06:14:27.362Z,1001.11
2017-05-13T06:15:28.644Z,1001.12
2017-05-13T06:16:29.959Z,1001.14
2017-05-13T06:17:31.206Z,1001.18
2017-05-13T06:18:32.484Z,1001.23
2017-05-13T06:19:33.737Z,1001.2
2017-05-13T06:20:34.986Z,1001.26
2017-05-13T06:21:36.256Z,1001.24
2017-05-13T06:22:37.567Z,1001.26
2017-05-13T06:23:38.857Z,1001.25
2017-05-13T06:24:40.116Z,1001.26
2017-05-13T06:25:41.376Z,1001.26
2017-05-13T06:26:42.685Z,1001.25
2017-05-13T06:27:43.959Z,1001.25
2017-05-13T06:28:45.296Z,1001.28
2017-05-13T06:29:46.547Z,1001.28
2017-05-13T06:30:47.799Z,1001.26
2017-05-13T06:31:49.057Z,1001.28
2017-05-13T06:32:50.400Z,1001.29
2017-05-13T06:33:51.705Z,1001.36
2017-05-13T06:34:53.017Z,1001.3
2017-05-13T06:35:54.300Z,1001.32
2017-05-13T06:36:55.567Z,1001.32
2017-05-13T06:37:56.853Z,1001.38
2017-05-13T06:38:58.133Z,1001.36
2017-05-13T06:39:59.464Z,1001.37
2017-05-13T06:41:00.666Z,1001.42
2017-05-13T06:42:01.907Z,1001.38
2017-05-13T06:43:03.155Z,1001.38
2017-05-13T06:44:04.429Z,1001.37
2017-05-13T06:45:05.770Z,1001.41
2017-05-13T06:46:07.035Z,1001.46
2017-05-13T06:47:08.254Z,1001.46
2017-05-13T06:48:09.505Z,1001.47
2017-05-13T06:49:10.796Z,1001.49
2017-05-13T06:50:12.160Z,1001.51
2017-05-13T06:51:13.480Z,1001.53
2017-05-13T06:52:14.788Z,1001.51
2017-05-13T06:53:16.057Z,1001.53
2017-05-13T06:54:17.300Z,1001.53
2017-05-13T06:55:18.611Z,1001.54
2017-05-13T06:56:19.849Z,1001.57
2017-05-13T06:57:21.166Z,1001.58
2017-05-13T06:58:22.375Z,1001.63
2017-05-13T06:59:23.655Z,1001.63
2017-05-13T07:00:24.871Z,1001.66
2017-05-13T07:01:26.218Z,1001.7
2017-05-13T07:02:27.516Z,1001.7
2017-05-13T07:03:28.773Z,1001.66
2017-05-13T07:04:30.072Z,1001.68
2017-05-13T07:05:31.335Z,1001.69
2017-05-13T07:06:32.567Z,1001.72
2017-05-13T07:07:33.871Z,1001.72
2017-05-13T07:08:35.122Z,1001.77
2017-05-13T07:09:36.371Z,1001.76
2017-05-13T07:10:37.742Z,1001.72
2017-05-13T07:11:38.997Z,1001.73
2017-05-13T07:12:40.250Z,1001.72
2017-05-13T07:13:41.518Z,1001.77
2017-05-13T07:14:42.829Z,1001.8
2017-05-13T07:15:44.126Z,1001.76
2017-05-13T07:16:45.437Z,1001.81
2017-05-13T07:17:46.714Z,1001.83
2017-05-13T07:18:47.971Z,1001.82
2017-05-13T07:19:49.253Z,1001.81
2017-05-13T07:20:50.558Z,1001.82
2017-05-13T07:21:51.973Z,1001.84
2017-05-13T07:22:53.468Z,1001.86
2017-05-13T07:23:54.682Z,1001.85
2017-05-13T07:24:55.948Z,1001.89
2017-05-13T07:25:57.320Z,1001.89
2017-05-13T07:26:58.603Z,1001.9
2017-05-13T07:27:59.859Z,1001.94
2017-05-13T07:29:01.098Z,1001.94
2017-05-13T07:30:02.345Z,1001.97
2017-05-13T07:31:03.636Z,1002.01
2017-05-13T07:32:04.913Z,1002.02
2017-05-13T07:33:06.176Z,1002.05
2017-05-13T07:34:07.525Z,1002.06
2017-05-13T07:35:08.794Z,1002.03
2017-05-13T07:36:10.140Z,1002.07
2017-05-13T07:37:11.409Z,1002.09
2017-05-13T07:38:12.670Z,1002.11
2017-05-13T07:39:14.052Z,1002.1
2017-05-13T07:40:15.317Z,1002.14
2017-05-13T07:41:16.645Z,1002.12
2017-05-13T07:42:17.932Z,1002.1
2017-05-13T07:43:19.318Z,1002.12
2017-05-13T07:44:20.582Z,1002.17
2017-05-13T07:45:21.866Z,1002.16
2017-05-13T07:46:23.146Z,1002.17
2017-05-13T07:47:24.427Z,1002.18
2017-05-13T07:48:25.745Z,1002.21
2017-05-13T07:49:27.029Z,1002.22
2017-05-13T07:50:28.302Z,1002.26
2017-05-13T07:51:29.587Z,1002.24
2017-05-13T07:52:30.835Z,1002.27
2017-05-13T07:53:32.125Z,1002.24
2017-05-13T07:54:33.466Z,1002.25
2017-05-13T07:55:34.720Z,1002.27
2017-05-13T07:56:36.047Z,1002.28
2017-05-13T07:57:37.401Z,1002.32
2017-05-13T07:58:38.653Z,1002.3
2017-05-13T07:59:39.928Z,1002.31
2017-05-13T08:00:41.186Z,1002.34
2017-05-13T08:01:42.437Z,1002.35
2017-05-13T08:02:43.729Z,1002.41
2017-05-13T08:03:45.006Z,1002.39
2017-05-13T08:04:46.405Z,1002.42
2017-05-13T08:05:47.709Z,1002.43
2017-05-13T08:06:48.964Z,1002.44
2017-05-13T08:07:50.201Z,1002.42
2017-05-13T08:08:51.482Z,1002.47
2017-05-13T08:09:52.697Z,1002.47
2017-05-13T08:10:53.972Z,1002.47
2017-05-13T08:11:55.228Z,1002.5
2017-05-13T08:12:56.515Z,1002.49
2017-05-13T08:13:57.906Z,1002.52
2017-05-13T08:14:59.144Z,1002.47
2017-05-13T08:16:00.441Z,1002.46
2017-05-13T08:17:01.715Z,1002.51
2017-05-13T08:18:03.002Z,1002.48
2017-05-13T08:19:04.271Z,1002.55
2017-05-13T08:20:05.532Z,1002.55
2017-05-13T08:21:06.782Z,1002.54
2017-05-13T08:22:08.061Z,1002.58
2017-05-13T08:23:09.310Z,1002.58
2017-05-13T08:24:10.597Z,1002.57
2017-05-13T08:25:11.935Z,1002.58
2017-05-13T08:26:13.239Z,1002.6
2017-05-13T08:27:14.497Z,1002.63
2017-05-13T08:28:15.801Z,1002.6
2017-05-13T08:29:17.074Z,1002.61
2017-05-13T08:30:18.482Z,1002.61
2017-05-13T08:31:19.674Z,1002.63
2017-05-13T08:32:21.010Z,1002.65
2017-05-13T08:33:22.289Z,1002.63
2017-05-13T08:34:23.529Z,1002.68
2017-05-13T08:35:24.789Z,1002.59
2017-05-13T08:36:26.046Z,1002.68
2017-05-13T08:37:27.299Z,1002.68
2017-05-13T08:38:28.548Z,1002.73
2017-05-13T08:39:29.791Z,1002.77
2017-05-13T08:40:31.052Z,1002.77
2017-05-13T08:41:32.321Z,1002.84
2017-05-13T08:42:33.621Z,1002.87
2017-05-13T08:43:34.873Z,1002.91
2017-05-13T08:44:36.168Z,1002.95
2017-05-13T08:45:37.548Z,1003
2017-05-13T08:46:38.804Z,1003.01
2017-05-13T08:47:40.059Z,1002.98
2017-05-13T08:48:41.354Z,1003.16
2017-05-13T08:49:42.597Z,1003.46
2017-05-13T08:50:43.922Z,1003.28
2017-05-13T08:51:45.205Z,1003.09
2017-05-13T08:52:46.538Z,1003.01
2017-05-13T08:53:47.905Z,1002.98
2017-05-13T08:54:49.186Z,1002.99
2017-05-13T08:55:50.490Z,1002.99
2017-05-13T08:56:51.728Z,1002.98
2017-05-13T08:57:52.982Z,1002.99
2017-05-13T08:58:54.359Z,1002.99
2017-05-13T08:59:55.715Z,1002.98
2017-05-13T09:00:57.030Z,1003
2017-05-13T09:01:58.305Z,1002.99
2017-05-13T09:02:59.560Z,1002.99
2017-05-13T09:04:00.817Z,1003.01
2017-05-13T09:05:02.208Z,1003.02
2017-05-13T09:06:03.640Z,1003.09
2017-05-13T09:07:04.888Z,1003.1
2017-05-13T09:08:06.185Z,1003.12
2017-05-13T09:09:07.456Z,1003.12
2017-05-13T09:10:08.759Z,1003.12
2017-05-13T09:11:10.147Z,1003.17
2017-05-13T09:12:11.414Z,1003.12
2017-05-13T09:13:12.701Z,1003.22
2017-05-13T09:14:13.987Z,1003.16
2017-05-13T09:15:15.220Z,1003.25
2017-05-13T09:16:16.628Z,1003.37
2017-05-13T09:17:17.901Z,1003.38
2017-05-13T09:18:19.214Z,1003.41
2017-05-13T09:19:20.497Z,1003.45
2017-05-13T09:20:21.731Z,1003.65
2017-05-13T09:21:23.027Z,1003.51
2017-05-13T09:22:24.249Z,1003.4
2017-05-13T09:23:25.601Z,1003.5
2017-05-13T09:24:26.871Z,1004.01
2017-05-13T09:25:28.129Z,1003.62
2017-05-13T09:26:29.398Z,1003.79
2017-05-13T09:27:30.663Z,1003.77
2017-05-13T09:28:31.950Z,1004.09
2017-05-13T09:29:33.337Z,1003.85
2017-05-13T09:30:34.598Z,1003.79
2017-05-13T09:31:35.984Z,1003.69
2017-05-13T09:32:37.282Z,1003.92
2017-05-13T09:33:38.545Z,1003.65
2017-05-13T09:34:39.848Z,1003.87
2017-05-13T09:35:41.193Z,1004.44
2017-05-13T09:36:42.472Z,1004
2017-05-13T09:37:43.733Z,1003.91
2017-05-13T09:38:45.024Z,1003.79
2017-05-13T09:39:46.311Z,1004.54
2017-05-13T09:40:47.664Z,1004.04
2017-05-13T09:41:48.995Z,1004.27
2017-05-13T09:42:50.376Z,1003.63
2017-05-13T09:43:51.696Z,1003.47
2017-05-13T09:44:52.972Z,1003.77
2017-05-13T09:45:54.233Z,1003.42
2017-05-13T09:46:55.493Z,1003.39
2017-05-13T09:47:56.753Z,1003.71
2017-05-13T09:48:58.073Z,1003.45
2017-05-13T09:49:59.497Z,1003.42
2017-05-13T09:51:00.736Z,1003.32
2017-05-13T09:52:02.178Z,1003.45
2017-05-13T09:53:03.543Z,1003.4
2017-05-13T09:54:04.842Z,1003.45
2017-05-13T09:55:06.199Z,1003.45
2017-05-13T09:56:07.506Z,1003.43
2017-05-13T09:57:08.780Z,1003.4
2017-05-13T09:58:10.074Z,1003.49
2017-05-13T09:59:11.349Z,1004.09
2017-05-13T10:00:12.640Z,1003.57
2017-05-13T10:01:13.934Z,1003.58
2017-05-13T10:02:15.238Z,1003.67
2017-05-13T10:03:16.567Z,1003.71
2017-05-13T10:04:17.806Z,1003.68
2017-05-13T10:05:19.113Z,1004.1
2017-05-13T10:06:20.394Z,1003.4
2017-05-13T10:07:21.705Z,1003.36
2017-05-13T10:08:23.030Z,1003.29
2017-05-13T10:09:24.311Z,1003.28
2017-05-13T10:10:25.610Z,1003.23
2017-05-13T10:11:26.929Z,1003.21
2017-05-13T10:12:28.273Z,1003.19
2017-05-13T10:13:29.519Z,1003.16
2017-05-13T10:14:30.800Z,1003.19
2017-05-13T10:15:32.085Z,1003.19
2017-05-13T10:16:33.369Z,1003.21
2017-05-13T10:17:34.731Z,1003.21
2017-05-13T10:18:36.002Z,1003.29
2017-05-13T10:19:37.429Z,1003.32
2017-05-13T10:20:38.706Z,1003.26
2017-05-13T10:21:39.957Z,1003.24
2017-05-13T10:22:41.240Z,1003.29
2017-05-13T10:23:42.522Z,1003.23
2017-05-13T10:24:43.830Z,1003.23
2017-05-13T10:25:45.107Z,1003.19
2017-05-13T10:26:46.434Z,1003.23
2017-05-13T10:27:47.763Z,1003.23
2017-05-13T10:28:49.029Z,1003.31
2017-05-13T10:29:50.313Z,1003.52
2017-05-13T10:30:51.584Z,1003.56
2017-05-13T10:31:52.851Z,1003.47
2017-05-13T10:32:54.103Z,1003.37
2017-05-13T10:33:55.391Z,1003.31
2017-05-13T10:34:56.631Z,1003.26
2017-05-13T10:35:57.893Z,1003.38
2017-05-13T10:36:59.345Z,1003.23
2017-05-13T10:38:00.567Z,1003.25
2017-05-13T10:39:01.826Z,1003.2
2017-05-13T10:40:03.094Z,1003.23
2017-05-13T10:41:04.429Z,1003.19
2017-05-13T10:42:05.737Z,1003.17
2017-05-13T10:43:07.029Z,1003.18
2017-05-13T10:44:08.288Z,1003.19
2017-05-13T10:45:09.544Z,1003.18
2017-05-13T10:46:10.832Z,1003.15
2017-05-13T10:47:12.385Z,1003.17
2017-05-13T10:48:13.664Z,1003.17
2017-05-13T10:49:14.960Z,1003.12
2017-05-13T10:50:16.255Z,1003.11
2017-05-13T10:51:17.578Z,1003.2
2017-05-13T10:52:18.846Z,1003.15
2017-05-13T10:53:20.099Z,1003.17
2017-05-13T10:54:21.428Z,1003.17
2017-05-13T10:55:22.719Z,1003.18
2017-05-13T10:56:23.942Z,1003.11
2017-05-13T10:57:25.359Z,1003.21
2017-05-13T10:58:26.526Z,1003.22
2017-05-13T10:59:27.833Z,1003.26
2017-05-13T11:00:29.111Z,1003.23
2017-05-13T11:01:30.422Z,1003.2
2017-05-13T11:02:31.670Z,1003.25
2017-05-13T11:03:32.970Z,1003.21
2017-05-13T11:04:34.252Z,1003.18
2017-05-13T11:05:35.559Z,1003.16
2017-05-13T11:06:36.909Z,1003.15
2017-05-13T11:07:38.136Z,1003.15
2017-05-13T11:08:39.528Z,1003.21
2017-05-13T11:09:40.789Z,1003.17
2017-05-13T11:10:42.088Z,1003.13
2017-05-13T11:11:43.343Z,1003.16
2017-05-13T11:12:44.605Z,1003.15
2017-05-13T11:13:45.885Z,1003.15
2017-05-13T11:14:47.142Z,1003.14
2017-05-13T11:15:48.389Z,1003.18
2017-05-13T11:16:49.672Z,1003.14
2017-05-13T11:17:50.927Z,1003.21
2017-05-13T11:18:52.170Z,1003.2
2017-05-13T11:19:53.418Z,1003.17
2017-05-13T11:20:54.667Z,1003.18
2017-05-13T11:21:55.932Z,1003.24
2017-05-13T11:22:57.306Z,1003.15
2017-05-13T11:23:58.564Z,1003.23
2017-05-13T11:24:59.809Z,1003.16
2017-05-13T11:26:01.054Z,1003.14
2017-05-13T11:27:02.301Z,1003.11
2017-05-13T11:28:03.822Z,1003.13
2017-05-13T11:29:05.080Z,1003.16
2017-05-13T11:30:06.313Z,1003.15
2017-05-13T11:31:07.576Z,1003.22
2017-05-13T11:32:08.874Z,1003.26
2017-05-13T11:33:10.127Z,1003.25
2017-05-13T11:34:11.380Z,1003.26
2017-05-13T11:35:12.638Z,1003.2
2017-05-13T11:36:13.904Z,1003.17
2017-05-13T11:37:15.171Z,1003.19
2017-05-13T11:38:16.597Z,1003.16
2017-05-13T11:39:17.969Z,1003.18
2017-05-13T11:40:19.206Z,1003.2
2017-05-13T11:41:20.477Z,1003.27
2017-05-13T11:42:21.724Z,1003.29
2017-05-13T11:43:22.975Z,1003.27
2017-05-13T11:44:24.242Z,1003.24
2017-05-13T11:45:25.557Z,1003.28
2017-05-13T11:46:26.813Z,1003.25
2017-05-13T11:47:28.073Z,1003.28
2017-05-13T11:48:29.356Z,1003.33
2017-05-13T11:49:30.637Z,1003.37
2017-05-13T11:50:31.947Z,1003.37
2017-05-13T11:51:33.297Z,1003.38
2017-05-13T11:52:34.556Z,1003.46
2017-05-13T11:53:35.813Z,1003.48
2017-05-13T11:54:37.059Z,1003.47
2017-05-13T11:55:38.321Z,1003.5
2017-05-13T11:56:39.641Z,1003.46
2017-05-13T11:57:40.927Z,1003.44
2017-05-13T11:58:42.255Z,1003.39
2017-05-13T11:59:43.522Z,1003.44
2017-05-13T12:00:44.789Z,1003.46
2017-05-13T12:01:46.150Z,1003.42
2017-05-13T12:02:47.437Z,1003.46
2017-05-13T12:03:48.678Z,1003.4
2017-05-13T12:04:49.967Z,1003.35
2017-05-13T12:05:51.218Z,1003.39
2017-05-13T12:06:52.495Z,1003.44
2017-05-13T12:07:53.779Z,1003.44
2017-05-13T12:08:55.138Z,1003.39
2017-05-13T12:09:56.296Z,1003.42
2017-05-13T12:10:57.719Z,1003.44
2017-05-13T12:11:58.996Z,1003.4
2017-05-13T12:13:00.277Z,1003.4
2017-05-13T12:14:01.586Z,1003.45
2017-05-13T12:15:03.027Z,1003.44
2017-05-13T12:16:04.293Z,1003.4
2017-05-13T12:17:05.581Z,1003.42
2017-05-13T12:18:06.812Z,1003.36
2017-05-13T12:19:08.181Z,1003.37
2017-05-13T12:20:09.422Z,1003.39
2017-05-13T12:21:10.661Z,1003.42
2017-05-13T12:22:11.912Z,1003.42
2017-05-13T12:23:13.179Z,1003.46
2017-05-13T12:24:14.506Z,1003.46
2017-05-13T12:25:16.045Z,1003.5
2017-05-13T12:26:17.316Z,1003.42
2017-05-13T12:27:18.583Z,1003.42
2017-05-13T12:28:19.830Z,1003.44
2017-05-13T12:29:21.100Z,1003.35
2017-05-13T12:30:22.376Z,1003.32
2017-05-13T12:31:23.724Z,1003.37
2017-05-13T12:32:24.945Z,1003.36